High wind

Not for real navigation. The accuracy of this data is not assured See disclaimer for more information



ICAO NAME COUNTRY WIND Kt GUST Kt VIS m TEMP/DEW C BARO METAR
SPRU Trujillo Peru 70 0 9000 22/19 29.83 SPRU 230900Z 1200700KT 9000 OVC023 22/19 Q1010 RMK BR PP000
LTAR Sivas Turkey 47 65 7000 16/0 29.59 LTAR 230850Z 20047G65KT 7000 VCSH FEW023CB BKN032 16/M00 Q1002
KMWN Mount Washington NH United States 40 0 200 -6/-6 29.92 KMWN 230854Z 32040KT 0.125SM FZFG BKN000 M06/M06 RMK SHSNE30 FZFG BKN000 VRY LGT ICG
UGKO 37 57 9999 19/3 29.56 UGKO 230930Z 08037G57KT 9999 BKN047 19/03 Q1001 R07/09//70 NOSIG
ENHE Heidrun Norway 35 0 9999 3/-2 29.68 ENHE 230850Z 32035KT 9999 FEW015CB BKN025 03/M02 Q1005 W///S6

Show more